sensor_id;sensor_type;location;lat;lon;timestamp;P1;durP1;ratioP1;P2;durP2;ratioP2
23119;SDS011;11729;50.836;4.330;2022-12-18T00:02:24;43.85;;;28.45;;
23119;SDS011;11729;50.836;4.330;2022-12-18T00:04:50;40.28;;;27.58;;
23119;SDS011;11729;50.836;4.330;2022-12-18T00:07:15;42.17;;;27.35;;
23119;SDS011;11729;50.836;4.330;2022-12-18T00:09:47;40.63;;;27.65;;
23119;SDS011;11729;50.836;4.330;2022-12-18T00:12:14;40.70;;;27.02;;
23119;SDS011;11729;50.836;4.330;2022-12-18T00:14:39;42.22;;;27.73;;
23119;SDS011;11729;50.836;4.330;2022-12-18T00:17:05;42.95;;;27.98;;
23119;SDS011;11729;50.836;4.330;2022-12-18T00:19:34;43.67;;;27.25;;
23119;SDS011;11729;50.836;4.330;2022-12-18T00:21:59;41.75;;;27.23;;
23119;SDS011;11729;50.836;4.330;2022-12-18T00:24:28;40.67;;;27.25;;
23119;SDS011;11729;50.836;4.330;2022-12-18T00:26:54;42.42;;;28.33;;
23119;SDS011;11729;50.836;4.330;2022-12-18T00:29:19;38.85;;;26.75;;
23119;SDS011;11729;50.836;4.330;2022-12-18T00:31:46;38.88;;;27.35;;
23119;SDS011;11729;50.836;4.330;2022-12-18T00:34:12;40.97;;;27.20;;
23119;SDS011;11729;50.836;4.330;2022-12-18T00:36:38;43.15;;;29.55;;
23119;SDS011;11729;50.836;4.330;2022-12-18T00:39:05;44.22;;;27.42;;
23119;SDS011;11729;50.836;4.330;2022-12-18T00:41:31;40.30;;;26.27;;
23119;SDS011;11729;50.836;4.330;2022-12-18T00:44:22;37.42;;;25.60;;
23119;SDS011;11729;50.836;4.330;2022-12-18T00:46:49;37.88;;;26.52;;
23119;SDS011;11729;50.836;4.330;2022-12-18T00:49:16;37.80;;;26.80;;
23119;SDS011;11729;50.836;4.330;2022-12-18T00:51:43;40.92;;;25.75;;
23119;SDS011;11729;50.836;4.330;2022-12-18T00:54:09;42.45;;;26.92;;
23119;SDS011;11729;50.836;4.330;2022-12-18T00:56:36;41.30;;;27.17;;
23119;SDS011;11729;50.836;4.330;2022-12-18T00:59:04;40.60;;;26.70;;
23119;SDS011;11729;50.836;4.330;2022-12-18T01:01:32;40.78;;;26.00;;
23119;SDS011;11729;50.836;4.330;2022-12-18T01:03:59;39.90;;;26.83;;
23119;SDS011;11729;50.836;4.330;2022-12-18T01:06:28;40.40;;;26.70;;
23119;SDS011;11729;50.836;4.330;2022-12-18T01:08:54;38.53;;;26.90;;
23119;SDS011;11729;50.836;4.330;2022-12-18T01:11:20;43.38;;;27.52;;
23119;SDS011;11729;50.836;4.330;2022-12-18T01:13:47;38.67;;;26.63;;
23119;SDS011;11729;50.836;4.330;2022-12-18T01:16:14;39.97;;;27.58;;
23119;SDS011;11729;50.836;4.330;2022-12-18T01:18:41;42.40;;;27.05;;
23119;SDS011;11729;50.836;4.330;2022-12-18T01:21:07;39.40;;;27.15;;
23119;SDS011;11729;50.836;4.330;2022-12-18T01:23:34;46.40;;;28.98;;
23119;SDS011;11729;50.836;4.330;2022-12-18T01:26:10;41.08;;;27.30;;
23119;SDS011;11729;50.836;4.330;2022-12-18T01:28:40;46.05;;;28.23;;
23119;SDS011;11729;50.836;4.330;2022-12-18T01:31:26;44.20;;;27.10;;
23119;SDS011;11729;50.836;4.330;2022-12-18T01:33:53;38.08;;;26.55;;
23119;SDS011;11729;50.836;4.330;2022-12-18T01:38:45;42.70;;;28.05;;
23119;SDS011;11729;50.836;4.330;2022-12-18T01:41:11;41.03;;;28.33;;
23119;SDS011;11729;50.836;4.330;2022-12-18T01:43:41;39.95;;;27.00;;
23119;SDS011;11729;50.836;4.330;2022-12-18T01:46:07;42.42;;;26.85;;
23119;SDS011;11729;50.836;4.330;2022-12-18T01:48:33;29.85;;;22.48;;
23119;SDS011;11729;50.836;4.330;2022-12-18T01:50:59;30.58;;;22.60;;
23119;SDS011;11729;50.836;4.330;2022-12-18T01:53:25;33.00;;;23.25;;
23119;SDS011;11729;50.836;4.330;2022-12-18T01:55:52;30.55;;;21.48;;
23119;SDS011;11729;50.836;4.330;2022-12-18T01:58:20;26.15;;;19.88;;
23119;SDS011;11729;50.836;4.330;2022-12-18T02:00:57;28.20;;;20.73;;
23119;SDS011;11729;50.836;4.330;2022-12-18T02:03:22;25.95;;;18.73;;
23119;SDS011;11729;50.836;4.330;2022-12-18T02:08:27;23.58;;;18.58;;
23119;SDS011;11729;50.836;4.330;2022-12-18T02:13:41;26.30;;;18.92;;
23119;SDS011;11729;50.836;4.330;2022-12-18T02:16:24;23.63;;;18.42;;
23119;SDS011;11729;50.836;4.330;2022-12-18T02:19:21;23.08;;;18.88;;
23119;SDS011;11729;50.836;4.330;2022-12-18T02:22:00;25.08;;;17.88;;
23119;SDS011;11729;50.836;4.330;2022-12-18T02:24:54;24.70;;;18.58;;
23119;SDS011;11729;50.836;4.330;2022-12-18T02:27:38;26.33;;;19.25;;
23119;SDS011;11729;50.836;4.330;2022-12-18T02:30:06;28.98;;;18.27;;
23119;SDS011;11729;50.836;4.330;2022-12-18T02:32:39;24.15;;;18.73;;
23119;SDS011;11729;50.836;4.330;2022-12-18T02:35:09;23.25;;;18.58;;
23119;SDS011;11729;50.836;4.330;2022-12-18T02:37:39;28.23;;;19.08;;
23119;SDS011;11729;50.836;4.330;2022-12-18T02:40:08;24.88;;;18.05;;
23119;SDS011;11729;50.836;4.330;2022-12-18T02:42:35;28.42;;;18.48;;
23119;SDS011;11729;50.836;4.330;2022-12-18T02:45:01;25.70;;;17.70;;
23119;SDS011;11729;50.836;4.330;2022-12-18T02:47:28;23.00;;;18.33;;
23119;SDS011;11729;50.836;4.330;2022-12-18T03:00:18;23.98;;;17.58;;
23119;SDS011;11729;50.836;4.330;2022-12-18T03:02:48;24.45;;;17.45;;
23119;SDS011;11729;50.836;4.330;2022-12-18T03:05:38;23.38;;;16.77;;
23119;SDS011;11729;50.836;4.330;2022-12-18T03:08:18;24.92;;;17.13;;
23119;SDS011;11729;50.836;4.330;2022-12-18T03:10:56;24.55;;;18.33;;
23119;SDS011;11729;50.836;4.330;2022-12-18T03:13:27;21.13;;;17.15;;
23119;SDS011;11729;50.836;4.330;2022-12-18T03:15:59;26.13;;;18.08;;
23119;SDS011;11729;50.836;4.330;2022-12-18T03:18:32;24.45;;;18.30;;
23119;SDS011;11729;50.836;4.330;2022-12-18T03:21:10;25.40;;;17.77;;
23119;SDS011;11729;50.836;4.330;2022-12-18T03:23:41;23.67;;;17.90;;
23119;SDS011;11729;50.836;4.330;2022-12-18T03:26:10;24.80;;;18.52;;
23119;SDS011;11729;50.836;4.330;2022-12-18T03:28:41;23.77;;;17.83;;
23119;SDS011;11729;50.836;4.330;2022-12-18T03:31:12;26.33;;;18.83;;
23119;SDS011;11729;50.836;4.330;2022-12-18T03:33:47;24.02;;;18.25;;
23119;SDS011;11729;50.836;4.330;2022-12-18T03:36:24;25.13;;;18.35;;
23119;SDS011;11729;50.836;4.330;2022-12-18T03:38:54;27.63;;;19.08;;
23119;SDS011;11729;50.836;4.330;2022-12-18T03:41:31;23.52;;;17.75;;
23119;SDS011;11729;50.836;4.330;2022-12-18T03:47:14;23.42;;;17.65;;
23119;SDS011;11729;50.836;4.330;2022-12-18T03:52:34;23.58;;;17.48;;
23119;SDS011;11729;50.836;4.330;2022-12-18T03:55:05;27.77;;;18.35;;
23119;SDS011;11729;50.836;4.330;2022-12-18T03:57:33;23.70;;;18.42;;
23119;SDS011;11729;50.836;4.330;2022-12-18T04:00:05;22.45;;;17.15;;
23119;SDS011;11729;50.836;4.330;2022-12-18T04:02:36;22.10;;;17.48;;
23119;SDS011;11729;50.836;4.330;2022-12-18T04:05:07;26.30;;;17.70;;
23119;SDS011;11729;50.836;4.330;2022-12-18T04:07:35;20.25;;;16.73;;
23119;SDS011;11729;50.836;4.330;2022-12-18T04:10:03;21.88;;;16.90;;
23119;SDS011;11729;50.836;4.330;2022-12-18T04:12:36;20.40;;;17.13;;
23119;SDS011;11729;50.836;4.330;2022-12-18T04:15:04;23.10;;;18.10;;
23119;SDS011;11729;50.836;4.330;2022-12-18T04:17:30;23.73;;;18.27;;
23119;SDS011;11729;50.836;4.330;2022-12-18T04:19:56;20.52;;;16.67;;
23119;SDS011;11729;50.836;4.330;2022-12-18T04:22:25;25.13;;;17.65;;
23119;SDS011;11729;50.836;4.330;2022-12-18T04:24:51;28.33;;;19.75;;
23119;SDS011;11729;50.836;4.330;2022-12-18T04:27:18;28.85;;;19.83;;
23119;SDS011;11729;50.836;4.330;2022-12-18T04:29:45;31.88;;;20.85;;
23119;SDS011;11729;50.836;4.330;2022-12-18T04:32:10;33.55;;;20.70;;
23119;SDS011;11729;50.836;4.330;2022-12-18T04:34:37;30.35;;;21.38;;
23119;SDS011;11729;50.836;4.330;2022-12-18T04:37:04;34.47;;;24.98;;
23119;SDS011;11729;50.836;4.330;2022-12-18T04:39:32;38.13;;;26.50;;
23119;SDS011;11729;50.836;4.330;2022-12-18T04:41:58;34.65;;;25.63;;
23119;SDS011;11729;50.836;4.330;2022-12-18T04:44:23;38.28;;;26.17;;
23119;SDS011;11729;50.836;4.330;2022-12-18T04:46:49;39.42;;;25.90;;
23119;SDS011;11729;50.836;4.330;2022-12-18T04:49:15;40.25;;;26.63;;
23119;SDS011;11729;50.836;4.330;2022-12-18T04:51:40;39.65;;;27.17;;
23119;SDS011;11729;50.836;4.330;2022-12-18T04:54:06;36.25;;;25.95;;
23119;SDS011;11729;50.836;4.330;2022-12-18T04:56:31;40.10;;;26.23;;
23119;SDS011;11729;50.836;4.330;2022-12-18T04:58:57;40.22;;;26.30;;
23119;SDS011;11729;50.836;4.330;2022-12-18T05:01:23;38.78;;;26.25;;
23119;SDS011;11729;50.836;4.330;2022-12-18T05:03:48;37.05;;;26.17;;
23119;SDS011;11729;50.836;4.330;2022-12-18T05:06:15;36.22;;;23.88;;
23119;SDS011;11729;50.836;4.330;2022-12-18T05:08:41;41.50;;;26.10;;
23119;SDS011;11729;50.836;4.330;2022-12-18T05:11:11;35.88;;;24.85;;
23119;SDS011;11729;50.836;4.330;2022-12-18T05:13:40;36.42;;;25.30;;
23119;SDS011;11729;50.836;4.330;2022-12-18T05:16:06;35.53;;;24.50;;
23119;SDS011;11729;50.836;4.330;2022-12-18T05:18:32;39.20;;;24.63;;
23119;SDS011;11729;50.836;4.330;2022-12-18T05:20:58;38.00;;;25.48;;
23119;SDS011;11729;50.836;4.330;2022-12-18T05:23:24;37.72;;;24.92;;
23119;SDS011;11729;50.836;4.330;2022-12-18T05:25:51;35.78;;;24.20;;
23119;SDS011;11729;50.836;4.330;2022-12-18T05:28:21;39.60;;;26.15;;
23119;SDS011;11729;50.836;4.330;2022-12-18T05:30:49;37.97;;;25.17;;
23119;SDS011;11729;50.836;4.330;2022-12-18T05:33:20;36.58;;;24.52;;
23119;SDS011;11729;50.836;4.330;2022-12-18T05:35:51;41.70;;;24.73;;
23119;SDS011;11729;50.836;4.330;2022-12-18T05:38:21;36.60;;;23.05;;
23119;SDS011;11729;50.836;4.330;2022-12-18T05:40:49;38.15;;;24.13;;
23119;SDS011;11729;50.836;4.330;2022-12-18T05:43:15;35.63;;;24.70;;
23119;SDS011;11729;50.836;4.330;2022-12-18T05:45:41;31.67;;;22.90;;
23119;SDS011;11729;50.836;4.330;2022-12-18T05:48:07;34.80;;;22.35;;
23119;SDS011;11729;50.836;4.330;2022-12-18T05:50:39;37.72;;;23.00;;
23119;SDS011;11729;50.836;4.330;2022-12-18T05:53:06;31.63;;;22.17;;
23119;SDS011;11729;50.836;4.330;2022-12-18T05:55:33;30.92;;;22.85;;
23119;SDS011;11729;50.836;4.330;2022-12-18T05:58:03;36.92;;;23.17;;
23119;SDS011;11729;50.836;4.330;2022-12-18T06:00:30;31.38;;;21.40;;
23119;SDS011;11729;50.836;4.330;2022-12-18T06:02:57;22.98;;;16.17;;
23119;SDS011;11729;50.836;4.330;2022-12-18T06:05:24;22.17;;;16.08;;
23119;SDS011;11729;50.836;4.330;2022-12-18T06:07:49;20.85;;;17.15;;
23119;SDS011;11729;50.836;4.330;2022-12-18T06:10:16;22.38;;;17.40;;
23119;SDS011;11729;50.836;4.330;2022-12-18T06:12:41;19.23;;;16.17;;
23119;SDS011;11729;50.836;4.330;2022-12-18T06:15:07;24.15;;;16.25;;
23119;SDS011;11729;50.836;4.330;2022-12-18T06:17:33;20.50;;;15.15;;
23119;SDS011;11729;50.836;4.330;2022-12-18T06:20:00;23.75;;;16.08;;
23119;SDS011;11729;50.836;4.330;2022-12-18T06:22:26;20.52;;;15.77;;
23119;SDS011;11729;50.836;4.330;2022-12-18T06:24:52;19.85;;;15.45;;
23119;SDS011;11729;50.836;4.330;2022-12-18T06:27:17;20.15;;;15.95;;
23119;SDS011;11729;50.836;4.330;2022-12-18T06:29:43;18.15;;;15.00;;
23119;SDS011;11729;50.836;4.330;2022-12-18T06:32:09;17.77;;;15.32;;
23119;SDS011;11729;50.836;4.330;2022-12-18T06:34:36;20.73;;;15.98;;
23119;SDS011;11729;50.836;4.330;2022-12-18T06:37:02;22.60;;;16.33;;
23119;SDS011;11729;50.836;4.330;2022-12-18T06:39:30;17.67;;;15.70;;
23119;SDS011;11729;50.836;4.330;2022-12-18T06:41:57;22.20;;;16.13;;
23119;SDS011;11729;50.836;4.330;2022-12-18T06:44:24;21.13;;;16.23;;
23119;SDS011;11729;50.836;4.330;2022-12-18T06:46:52;19.90;;;15.95;;
23119;SDS011;11729;50.836;4.330;2022-12-18T06:49:20;19.80;;;16.05;;
23119;SDS011;11729;50.836;4.330;2022-12-18T06:51:52;18.38;;;15.35;;
23119;SDS011;11729;50.836;4.330;2022-12-18T06:54:24;18.35;;;15.07;;
23119;SDS011;11729;50.836;4.330;2022-12-18T06:56:51;18.50;;;15.50;;
23119;SDS011;11729;50.836;4.330;2022-12-18T06:59:17;16.48;;;14.57;;
23119;SDS011;11729;50.836;4.330;2022-12-18T07:01:43;18.17;;;14.60;;
23119;SDS011;11729;50.836;4.330;2022-12-18T07:04:11;17.52;;;15.23;;
23119;SDS011;11729;50.836;4.330;2022-12-18T07:06:49;18.88;;;15.55;;
23119;SDS011;11729;50.836;4.330;2022-12-18T07:09:19;17.20;;;15.00;;
23119;SDS011;11729;50.836;4.330;2022-12-18T07:11:45;20.55;;;14.90;;
23119;SDS011;11729;50.836;4.330;2022-12-18T07:14:12;19.08;;;14.95;;
23119;SDS011;11729;50.836;4.330;2022-12-18T07:16:40;17.80;;;15.10;;
23119;SDS011;11729;50.836;4.330;2022-12-18T07:19:06;20.02;;;15.82;;
23119;SDS011;11729;50.836;4.330;2022-12-18T07:21:32;19.30;;;16.05;;
23119;SDS011;11729;50.836;4.330;2022-12-18T07:24:01;21.52;;;16.08;;
23119;SDS011;11729;50.836;4.330;2022-12-18T07:26:27;19.60;;;16.25;;
23119;SDS011;11729;50.836;4.330;2022-12-18T07:28:56;22.23;;;15.27;;
23119;SDS011;11729;50.836;4.330;2022-12-18T07:31:22;19.40;;;15.38;;
23119;SDS011;11729;50.836;4.330;2022-12-18T07:33:48;23.90;;;15.00;;
23119;SDS011;11729;50.836;4.330;2022-12-18T07:36:15;18.50;;;14.85;;
23119;SDS011;11729;50.836;4.330;2022-12-18T07:38:41;18.67;;;15.18;;
23119;SDS011;11729;50.836;4.330;2022-12-18T07:41:08;17.38;;;14.48;;
23119;SDS011;11729;50.836;4.330;2022-12-18T07:43:35;19.77;;;14.85;;
23119;SDS011;11729;50.836;4.330;2022-12-18T07:46:01;21.60;;;15.43;;
23119;SDS011;11729;50.836;4.330;2022-12-18T07:48:27;18.67;;;15.18;;
23119;SDS011;11729;50.836;4.330;2022-12-18T07:50:55;20.80;;;15.25;;
23119;SDS011;11729;50.836;4.330;2022-12-18T07:53:23;18.80;;;14.88;;
23119;SDS011;11729;50.836;4.330;2022-12-18T07:55:49;19.27;;;15.23;;
23119;SDS011;11729;50.836;4.330;2022-12-18T07:58:19;16.58;;;14.50;;
23119;SDS011;11729;50.836;4.330;2022-12-18T08:00:45;18.80;;;14.45;;
23119;SDS011;11729;50.836;4.330;2022-12-18T08:03:10;16.73;;;14.20;;
23119;SDS011;11729;50.836;4.330;2022-12-18T08:05:37;17.00;;;14.68;;
23119;SDS011;11729;50.836;4.330;2022-12-18T08:08:03;16.55;;;14.52;;
23119;SDS011;11729;50.836;4.330;2022-12-18T08:10:28;18.48;;;14.82;;
23119;SDS011;11729;50.836;4.330;2022-12-18T08:12:54;17.33;;;14.90;;
23119;SDS011;11729;50.836;4.330;2022-12-18T08:15:19;17.50;;;14.77;;
23119;SDS011;11729;50.836;4.330;2022-12-18T08:17:45;17.27;;;14.57;;
23119;SDS011;11729;50.836;4.330;2022-12-18T08:20:11;17.70;;;15.65;;
23119;SDS011;11729;50.836;4.330;2022-12-18T08:22:39;26.15;;;14.60;;
23119;SDS011;11729;50.836;4.330;2022-12-18T08:25:06;17.80;;;15.07;;
23119;SDS011;11729;50.836;4.330;2022-12-18T08:27:32;16.95;;;14.65;;
23119;SDS011;11729;50.836;4.330;2022-12-18T08:29:57;21.80;;;15.57;;
23119;SDS011;11729;50.836;4.330;2022-12-18T08:32:24;17.63;;;15.48;;
23119;SDS011;11729;50.836;4.330;2022-12-18T08:34:50;20.38;;;16.05;;
23119;SDS011;11729;50.836;4.330;2022-12-18T08:37:16;19.45;;;15.73;;
23119;SDS011;11729;50.836;4.330;2022-12-18T08:39:41;43.17;;;26.33;;
23119;SDS011;11729;50.836;4.330;2022-12-18T08:42:07;27.85;;;18.10;;
23119;SDS011;11729;50.836;4.330;2022-12-18T08:44:51;23.40;;;15.80;;
23119;SDS011;11729;50.836;4.330;2022-12-18T08:47:17;18.15;;;15.43;;
23119;SDS011;11729;50.836;4.330;2022-12-18T08:49:42;19.58;;;14.75;;
23119;SDS011;11729;50.836;4.330;2022-12-18T08:52:08;20.05;;;15.75;;
23119;SDS011;11729;50.836;4.330;2022-12-18T08:54:33;17.23;;;14.60;;
23119;SDS011;11729;50.836;4.330;2022-12-18T08:56:59;17.20;;;14.68;;
23119;SDS011;11729;50.836;4.330;2022-12-18T08:59:25;22.70;;;15.70;;
23119;SDS011;11729;50.836;4.330;2022-12-18T09:01:53;19.35;;;15.30;;
23119;SDS011;11729;50.836;4.330;2022-12-18T09:06:44;16.63;;;14.75;;
23119;SDS011;11729;50.836;4.330;2022-12-18T09:09:10;19.67;;;15.35;;
23119;SDS011;11729;50.836;4.330;2022-12-18T09:11:37;18.70;;;15.45;;
23119;SDS011;11729;50.836;4.330;2022-12-18T09:14:03;17.13;;;14.40;;
23119;SDS011;11729;50.836;4.330;2022-12-18T09:16:28;22.33;;;15.13;;
23119;SDS011;11729;50.836;4.330;2022-12-18T09:18:56;18.90;;;15.25;;
23119;SDS011;11729;50.836;4.330;2022-12-18T09:21:26;20.35;;;14.93;;
23119;SDS011;11729;50.836;4.330;2022-12-18T09:26:20;17.48;;;14.57;;
23119;SDS011;11729;50.836;4.330;2022-12-18T09:28:47;18.23;;;15.35;;
23119;SDS011;11729;50.836;4.330;2022-12-18T09:31:12;17.73;;;14.85;;
23119;SDS011;11729;50.836;4.330;2022-12-18T09:33:40;22.95;;;16.25;;
23119;SDS011;11729;50.836;4.330;2022-12-18T09:36:07;23.35;;;15.85;;
23119;SDS011;11729;50.836;4.330;2022-12-18T09:38:34;21.98;;;16.63;;
23119;SDS011;11729;50.836;4.330;2022-12-18T09:41:03;17.52;;;15.55;;
23119;SDS011;11729;50.836;4.330;2022-12-18T09:43:51;19.17;;;15.40;;
23119;SDS011;11729;50.836;4.330;2022-12-18T09:46:26;19.77;;;15.52;;
23119;SDS011;11729;50.836;4.330;2022-12-18T09:48:59;27.13;;;16.15;;
23119;SDS011;11729;50.836;4.330;2022-12-18T09:51:28;20.27;;;16.83;;
23119;SDS011;11729;50.836;4.330;2022-12-18T09:54:04;19.05;;;16.10;;
23119;SDS011;11729;50.836;4.330;2022-12-18T09:56:34;19.55;;;16.02;;
23119;SDS011;11729;50.836;4.330;2022-12-18T09:59:03;24.42;;;17.15;;
23119;SDS011;11729;50.836;4.330;2022-12-18T10:01:31;21.40;;;16.70;;
23119;SDS011;11729;50.836;4.330;2022-12-18T10:03:57;19.98;;;16.40;;
23119;SDS011;11729;50.836;4.330;2022-12-18T10:06:27;22.05;;;16.98;;
23119;SDS011;11729;50.836;4.330;2022-12-18T10:14:57;20.17;;;16.92;;
23119;SDS011;11729;50.836;4.330;2022-12-18T10:20:00;20.42;;;15.85;;
23119;SDS011;11729;50.836;4.330;2022-12-18T10:22:52;19.98;;;16.58;;
23119;SDS011;11729;50.836;4.330;2022-12-18T10:28:12;20.13;;;16.75;;
23119;SDS011;11729;50.836;4.330;2022-12-18T10:30:39;26.27;;;17.45;;
23119;SDS011;11729;50.836;4.330;2022-12-18T10:33:10;25.75;;;18.08;;
23119;SDS011;11729;50.836;4.330;2022-12-18T10:35:42;32.97;;;22.83;;
23119;SDS011;11729;50.836;4.330;2022-12-18T10:43:33;21.85;;;16.83;;
23119;SDS011;11729;50.836;4.330;2022-12-18T10:51:23;22.05;;;18.23;;
23119;SDS011;11729;50.836;4.330;2022-12-18T10:53:57;21.65;;;16.98;;
23119;SDS011;11729;50.836;4.330;2022-12-18T10:56:28;20.08;;;17.65;;
23119;SDS011;11729;50.836;4.330;2022-12-18T10:59:16;21.85;;;17.67;;
23119;SDS011;11729;50.836;4.330;2022-12-18T11:09:42;24.23;;;17.42;;
23119;SDS011;11729;50.836;4.330;2022-12-18T11:17:16;28.83;;;17.92;;
23119;SDS011;11729;50.836;4.330;2022-12-18T11:19:54;25.63;;;18.30;;
23119;SDS011;11729;50.836;4.330;2022-12-18T11:22:24;23.73;;;18.48;;
23119;SDS011;11729;50.836;4.330;2022-12-18T11:25:35;25.58;;;18.73;;
23119;SDS011;11729;50.836;4.330;2022-12-18T11:27:49;24.05;;;18.38;;
23119;SDS011;11729;50.836;4.330;2022-12-18T11:30:26;24.10;;;18.70;;
23119;SDS011;11729;50.836;4.330;2022-12-18T11:35:52;25.17;;;19.10;;
23119;SDS011;11729;50.836;4.330;2022-12-18T11:43:27;25.77;;;18.67;;
23119;SDS011;11729;50.836;4.330;2022-12-18T11:46:07;22.52;;;18.55;;
23119;SDS011;11729;50.836;4.330;2022-12-18T11:51:29;25.30;;;18.88;;
23119;SDS011;11729;50.836;4.330;2022-12-18T11:54:09;28.83;;;18.98;;
23119;SDS011;11729;50.836;4.330;2022-12-18T11:56:40;26.33;;;18.73;;
23119;SDS011;11729;50.836;4.330;2022-12-18T12:15:39;22.75;;;17.60;;
23119;SDS011;11729;50.836;4.330;2022-12-18T12:21:20;26.48;;;19.30;;
23119;SDS011;11729;50.836;4.330;2022-12-18T12:26:29;28.20;;;19.00;;
23119;SDS011;11729;50.836;4.330;2022-12-18T12:34:41;31.17;;;21.45;;
23119;SDS011;11729;50.836;4.330;2022-12-18T12:39:59;24.00;;;17.73;;
23119;SDS011;11729;50.836;4.330;2022-12-18T12:42:43;24.92;;;18.25;;
23119;SDS011;11729;50.836;4.330;2022-12-18T12:48:24;23.25;;;18.95;;
23119;SDS011;11729;50.836;4.330;2022-12-18T12:51:36;25.33;;;18.60;;
23119;SDS011;11729;50.836;4.330;2022-12-18T12:54:12;27.15;;;20.13;;
23119;SDS011;11729;50.836;4.330;2022-12-18T12:57:04;27.58;;;18.80;;
23119;SDS011;11729;50.836;4.330;2022-12-18T13:02:24;28.80;;;20.52;;
23119;SDS011;11729;50.836;4.330;2022-12-18T13:07:33;33.47;;;19.67;;
23119;SDS011;11729;50.836;4.330;2022-12-18T13:12:57;29.40;;;20.05;;
23119;SDS011;11729;50.836;4.330;2022-12-18T13:20:43;30.02;;;21.90;;
23119;SDS011;11729;50.836;4.330;2022-12-18T13:25:59;32.15;;;22.50;;
23119;SDS011;11729;50.836;4.330;2022-12-18T13:31:12;50.33;;;26.85;;
23119;SDS011;11729;50.836;4.330;2022-12-18T13:36:45;35.88;;;24.30;;
23119;SDS011;11729;50.836;4.330;2022-12-18T13:41:46;32.47;;;23.70;;
23119;SDS011;11729;50.836;4.330;2022-12-18T13:44:58;36.00;;;23.60;;
23119;SDS011;11729;50.836;4.330;2022-12-18T13:47:26;36.22;;;24.00;;
23119;SDS011;11729;50.836;4.330;2022-12-18T13:49:57;39.80;;;25.23;;
23119;SDS011;11729;50.836;4.330;2022-12-18T13:52:35;33.72;;;23.70;;
23119;SDS011;11729;50.836;4.330;2022-12-18T13:55:06;37.10;;;25.00;;
23119;SDS011;11729;50.836;4.330;2022-12-18T13:57:39;39.63;;;26.50;;
23119;SDS011;11729;50.836;4.330;2022-12-18T14:00:27;36.13;;;24.80;;
23119;SDS011;11729;50.836;4.330;2022-12-18T14:02:55;38.85;;;25.23;;
23119;SDS011;11729;50.836;4.330;2022-12-18T14:05:29;37.92;;;24.17;;
23119;SDS011;11729;50.836;4.330;2022-12-18T14:08:05;43.22;;;26.20;;
23119;SDS011;11729;50.836;4.330;2022-12-18T14:10:43;39.83;;;26.02;;
23119;SDS011;11729;50.836;4.330;2022-12-18T14:13:32;37.53;;;23.10;;
23119;SDS011;11729;50.836;4.330;2022-12-18T14:21:03;40.88;;;26.42;;
23119;SDS011;11729;50.836;4.330;2022-12-18T14:23:39;41.25;;;27.33;;
23119;SDS011;11729;50.836;4.330;2022-12-18T14:28:54;43.17;;;27.63;;
23119;SDS011;11729;50.836;4.330;2022-12-18T14:31:27;37.45;;;26.67;;
23119;SDS011;11729;50.836;4.330;2022-12-18T14:33:54;40.03;;;26.85;;
23119;SDS011;11729;50.836;4.330;2022-12-18T14:36:24;39.70;;;24.95;;
23119;SDS011;11729;50.836;4.330;2022-12-18T14:38:51;41.58;;;27.85;;
23119;SDS011;11729;50.836;4.330;2022-12-18T14:41:26;41.28;;;27.25;;
23119;SDS011;11729;50.836;4.330;2022-12-18T14:43:53;50.30;;;29.08;;
23119;SDS011;11729;50.836;4.330;2022-12-18T14:48:59;44.15;;;26.38;;
23119;SDS011;11729;50.836;4.330;2022-12-18T14:51:28;39.47;;;26.67;;
23119;SDS011;11729;50.836;4.330;2022-12-18T14:56:26;42.97;;;27.70;;
23119;SDS011;11729;50.836;4.330;2022-12-18T14:59:01;39.80;;;26.70;;
23119;SDS011;11729;50.836;4.330;2022-12-18T15:01:39;42.70;;;28.13;;
23119;SDS011;11729;50.836;4.330;2022-12-18T15:04:27;41.50;;;27.20;;
23119;SDS011;11729;50.836;4.330;2022-12-18T15:07:09;42.08;;;27.48;;
23119;SDS011;11729;50.836;4.330;2022-12-18T15:09:43;43.03;;;25.45;;
23119;SDS011;11729;50.836;4.330;2022-12-18T15:12:37;43.40;;;26.55;;
23119;SDS011;11729;50.836;4.330;2022-12-18T15:26:00;45.78;;;28.42;;
23119;SDS011;11729;50.836;4.330;2022-12-18T15:28:36;40.70;;;27.80;;
23119;SDS011;11729;50.836;4.330;2022-12-18T15:33:47;41.10;;;27.80;;
23119;SDS011;11729;50.836;4.330;2022-12-18T15:36:28;43.30;;;27.85;;
23119;SDS011;11729;50.836;4.330;2022-12-18T15:39:01;47.10;;;29.60;;
23119;SDS011;11729;50.836;4.330;2022-12-18T15:41:27;44.47;;;26.20;;
23119;SDS011;11729;50.836;4.330;2022-12-18T15:43:53;40.55;;;27.30;;
23119;SDS011;11729;50.836;4.330;2022-12-18T15:46:22;45.65;;;28.38;;
23119;SDS011;11729;50.836;4.330;2022-12-18T15:48:50;45.35;;;28.98;;
23119;SDS011;11729;50.836;4.330;2022-12-18T15:51:33;45.95;;;28.48;;
23119;SDS011;11729;50.836;4.330;2022-12-18T15:54:02;45.10;;;26.10;;
23119;SDS011;11729;50.836;4.330;2022-12-18T15:56:30;45.28;;;29.77;;
23119;SDS011;11729;50.836;4.330;2022-12-18T15:59:15;47.20;;;29.90;;
23119;SDS011;11729;50.836;4.330;2022-12-18T16:01:44;46.40;;;28.10;;
23119;SDS011;11729;50.836;4.330;2022-12-18T16:04:15;45.97;;;28.40;;
23119;SDS011;11729;50.836;4.330;2022-12-18T16:06:42;47.00;;;28.75;;
23119;SDS011;11729;50.836;4.330;2022-12-18T16:09:08;42.72;;;27.17;;
23119;SDS011;11729;50.836;4.330;2022-12-18T16:11:34;44.85;;;28.38;;
23119;SDS011;11729;50.836;4.330;2022-12-18T16:16:48;45.63;;;27.38;;
23119;SDS011;11729;50.836;4.330;2022-12-18T16:19:16;43.40;;;28.17;;
23119;SDS011;11729;50.836;4.330;2022-12-18T16:21:42;43.72;;;27.25;;
23119;SDS011;11729;50.836;4.330;2022-12-18T16:26:41;47.28;;;26.60;;
23119;SDS011;11729;50.836;4.330;2022-12-18T16:29:07;38.05;;;23.90;;
23119;SDS011;11729;50.836;4.330;2022-12-18T16:31:33;46.42;;;27.48;;
23119;SDS011;11729;50.836;4.330;2022-12-18T16:34:12;41.95;;;27.48;;
23119;SDS011;11729;50.836;4.330;2022-12-18T16:36:37;44.70;;;27.60;;
23119;SDS011;11729;50.836;4.330;2022-12-18T16:39:03;44.90;;;27.73;;
23119;SDS011;11729;50.836;4.330;2022-12-18T16:41:29;43.72;;;27.48;;
23119;SDS011;11729;50.836;4.330;2022-12-18T16:43:57;51.05;;;30.33;;
23119;SDS011;11729;50.836;4.330;2022-12-18T16:46:24;43.17;;;26.42;;
23119;SDS011;11729;50.836;4.330;2022-12-18T16:48:49;41.92;;;26.05;;
23119;SDS011;11729;50.836;4.330;2022-12-18T16:51:15;42.03;;;26.48;;
23119;SDS011;11729;50.836;4.330;2022-12-18T16:53:40;45.90;;;24.40;;
23119;SDS011;11729;50.836;4.330;2022-12-18T16:56:06;44.67;;;26.30;;
23119;SDS011;11729;50.836;4.330;2022-12-18T16:58:32;41.80;;;26.05;;
23119;SDS011;11729;50.836;4.330;2022-12-18T17:00:58;39.05;;;23.42;;
23119;SDS011;11729;50.836;4.330;2022-12-18T17:03:24;40.90;;;26.17;;
23119;SDS011;11729;50.836;4.330;2022-12-18T17:05:49;41.40;;;25.98;;
23119;SDS011;11729;50.836;4.330;2022-12-18T17:08:15;52.17;;;30.55;;
23119;SDS011;11729;50.836;4.330;2022-12-18T17:10:40;49.30;;;30.25;;
23119;SDS011;11729;50.836;4.330;2022-12-18T17:13:06;46.25;;;27.27;;
23119;SDS011;11729;50.836;4.330;2022-12-18T17:15:34;41.22;;;27.52;;
23119;SDS011;11729;50.836;4.330;2022-12-18T17:18:01;46.22;;;25.92;;
23119;SDS011;11729;50.836;4.330;2022-12-18T17:20:27;43.95;;;27.08;;
23119;SDS011;11729;50.836;4.330;2022-12-18T17:22:55;38.25;;;24.80;;